KBFI

King County International Airport

Airport
ICAO code
KBFI
Summary
ICAO Region
NAM
ICAO Territory
Location

Seattle, Washington,

Coordinates
47° 32' 12" N , 122° 18' 14" W
KCC
Airport LOS
Parallel Runway Operation
Metar
Observation
KBFI 302053Z 20013G19KT 10SM BKN037 12/02 A2985 RMK AO2 SLP109 T01170022 51002
Station
Seattle, Seattle Boeing Field
Date/Time
2023-03-30 20:53:00
Wind direction
200°
Wind speed
13 kts
Lowest cloud amount
broken clouds
Temperature
11.7°C
Dew point
2.2°C
Humidity
52%
Weather condition
n/a

Description

Boeing Field, officially King County International Airport, is a public airport located 8 km south of the central business district of Seattle, Washington.

Climatology

Dry-summer subtropical ”Mediterranean" climate (Köppen climate classification Csb) - characterized by warm, dry summers and mild winters.

Airport map

Aerial View

SKYbrary Partners:

Safety knowledge contributed by: